sensor_id;sensor_type;location;lat;lon;timestamp;P1;durP1;ratioP1;P2;durP2;ratioP2
69847;SDS011;57143;55.940;37.496;2022-10-23T00:01:24;10.50;;;3.67;;
69847;SDS011;57143;55.940;37.496;2022-10-23T00:03:54;10.48;;;4.13;;
69847;SDS011;57143;55.940;37.496;2022-10-23T00:06:24;9.65;;;3.90;;
69847;SDS011;57143;55.940;37.496;2022-10-23T00:08:52;11.48;;;4.70;;
69847;SDS011;57143;55.940;37.496;2022-10-23T00:11:20;12.38;;;3.85;;
69847;SDS011;57143;55.940;37.496;2022-10-23T00:13:49;13.23;;;4.47;;
69847;SDS011;57143;55.940;37.496;2022-10-23T00:16:17;9.30;;;3.70;;
69847;SDS011;57143;55.940;37.496;2022-10-23T00:18:44;9.13;;;3.38;;
69847;SDS011;57143;55.940;37.496;2022-10-23T00:21:11;10.50;;;3.78;;
69847;SDS011;57143;55.940;37.496;2022-10-23T00:23:41;12.52;;;4.43;;
69847;SDS011;57143;55.940;37.496;2022-10-23T00:26:08;10.20;;;3.70;;
69847;SDS011;57143;55.940;37.496;2022-10-23T00:28:39;13.38;;;4.63;;
69847;SDS011;57143;55.940;37.496;2022-10-23T00:31:07;11.18;;;4.30;;
69847;SDS011;57143;55.940;37.496;2022-10-23T00:33:34;11.88;;;4.75;;
69847;SDS011;57143;55.940;37.496;2022-10-23T00:36:03;15.60;;;5.22;;
69847;SDS011;57143;55.940;37.496;2022-10-23T00:38:31;12.87;;;4.57;;
69847;SDS011;57143;55.940;37.496;2022-10-23T00:40:59;15.60;;;4.90;;
69847;SDS011;57143;55.940;37.496;2022-10-23T00:43:27;12.95;;;4.93;;
69847;SDS011;57143;55.940;37.496;2022-10-23T00:45:56;13.13;;;4.97;;
69847;SDS011;57143;55.940;37.496;2022-10-23T00:48:23;13.40;;;5.35;;
69847;SDS011;57143;55.940;37.496;2022-10-23T00:50:53;14.90;;;4.20;;
69847;SDS011;57143;55.940;37.496;2022-10-23T00:53:21;11.63;;;4.45;;
69847;SDS011;57143;55.940;37.496;2022-10-23T00:55:49;12.70;;;4.65;;
69847;SDS011;57143;55.940;37.496;2022-10-23T00:58:20;13.27;;;5.00;;
69847;SDS011;57143;55.940;37.496;2022-10-23T01:00:48;12.80;;;4.72;;
69847;SDS011;57143;55.940;37.496;2022-10-23T01:03:18;10.70;;;4.43;;
69847;SDS011;57143;55.940;37.496;2022-10-23T01:05:49;13.82;;;4.93;;
69847;SDS011;57143;55.940;37.496;2022-10-23T01:08:22;12.35;;;4.63;;
69847;SDS011;57143;55.940;37.496;2022-10-23T01:10:56;12.45;;;4.43;;
69847;SDS011;57143;55.940;37.496;2022-10-23T01:13:34;9.02;;;3.70;;
69847;SDS011;57143;55.940;37.496;2022-10-23T01:16:10;11.40;;;4.60;;
69847;SDS011;57143;55.940;37.496;2022-10-23T01:18:43;10.00;;;4.28;;
69847;SDS011;57143;55.940;37.496;2022-10-23T01:21:12;11.32;;;4.40;;
69847;SDS011;57143;55.940;37.496;2022-10-23T01:26:53;10.65;;;3.67;;
69847;SDS011;57143;55.940;37.496;2022-10-23T01:29:27;9.27;;;3.63;;
69847;SDS011;57143;55.940;37.496;2022-10-23T01:32:01;11.80;;;4.22;;
69847;SDS011;57143;55.940;37.496;2022-10-23T01:34:36;10.73;;;4.32;;
69847;SDS011;57143;55.940;37.496;2022-10-23T01:37:07;12.93;;;4.32;;
69847;SDS011;57143;55.940;37.496;2022-10-23T01:39:43;13.52;;;4.95;;
69847;SDS011;57143;55.940;37.496;2022-10-23T01:42:14;14.83;;;5.50;;
69847;SDS011;57143;55.940;37.496;2022-10-23T01:44:46;13.57;;;5.03;;
69847;SDS011;57143;55.940;37.496;2022-10-23T01:47:17;14.35;;;4.60;;
69847;SDS011;57143;55.940;37.496;2022-10-23T01:49:47;13.60;;;4.95;;
69847;SDS011;57143;55.940;37.496;2022-10-23T01:52:16;9.48;;;3.75;;
69847;SDS011;57143;55.940;37.496;2022-10-23T01:54:45;11.77;;;4.37;;
69847;SDS011;57143;55.940;37.496;2022-10-23T01:57:16;12.73;;;4.60;;
69847;SDS011;57143;55.940;37.496;2022-10-23T01:59:48;12.10;;;4.03;;
69847;SDS011;57143;55.940;37.496;2022-10-23T02:02:17;12.70;;;4.43;;
69847;SDS011;57143;55.940;37.496;2022-10-23T02:04:47;13.20;;;4.95;;
69847;SDS011;57143;55.940;37.496;2022-10-23T02:07:16;12.13;;;4.23;;
69847;SDS011;57143;55.940;37.496;2022-10-23T02:09:43;13.48;;;4.28;;
69847;SDS011;57143;55.940;37.496;2022-10-23T02:12:12;10.20;;;3.80;;
69847;SDS011;57143;55.940;37.496;2022-10-23T02:14:45;11.43;;;3.88;;
69847;SDS011;57143;55.940;37.496;2022-10-23T02:17:20;10.88;;;3.95;;
69847;SDS011;57143;55.940;37.496;2022-10-23T02:19:57;11.40;;;4.50;;
69847;SDS011;57143;55.940;37.496;2022-10-23T02:22:29;12.35;;;4.78;;
69847;SDS011;57143;55.940;37.496;2022-10-23T02:25:04;11.00;;;4.53;;
69847;SDS011;57143;55.940;37.496;2022-10-23T02:27:39;17.42;;;5.00;;
69847;SDS011;57143;55.940;37.496;2022-10-23T02:30:10;11.50;;;4.15;;
69847;SDS011;57143;55.940;37.496;2022-10-23T02:32:40;18.10;;;5.27;;
69847;SDS011;57143;55.940;37.496;2022-10-23T02:35:09;10.98;;;5.10;;
69847;SDS011;57143;55.940;37.496;2022-10-23T02:37:37;12.73;;;5.57;;
69847;SDS011;57143;55.940;37.496;2022-10-23T02:40:05;13.00;;;5.65;;
69847;SDS011;57143;55.940;37.496;2022-10-23T02:42:35;12.98;;;5.65;;
69847;SDS011;57143;55.940;37.496;2022-10-23T02:45:11;13.50;;;5.37;;
69847;SDS011;57143;55.940;37.496;2022-10-23T02:47:45;15.27;;;6.30;;
69847;SDS011;57143;55.940;37.496;2022-10-23T02:50:21;15.52;;;6.10;;
69847;SDS011;57143;55.940;37.496;2022-10-23T02:52:57;14.82;;;5.93;;
69847;SDS011;57143;55.940;37.496;2022-10-23T02:55:33;14.98;;;5.95;;
69847;SDS011;57143;55.940;37.496;2022-10-23T02:58:12;14.30;;;5.07;;
69847;SDS011;57143;55.940;37.496;2022-10-23T03:00:47;11.77;;;5.05;;
69847;SDS011;57143;55.940;37.496;2022-10-23T03:03:18;12.68;;;4.60;;
69847;SDS011;57143;55.940;37.496;2022-10-23T03:05:50;14.38;;;5.28;;
69847;SDS011;57143;55.940;37.496;2022-10-23T03:08:18;12.63;;;5.05;;
69847;SDS011;57143;55.940;37.496;2022-10-23T03:10:45;14.43;;;5.07;;
69847;SDS011;57143;55.940;37.496;2022-10-23T03:13:12;15.40;;;5.38;;
69847;SDS011;57143;55.940;37.496;2022-10-23T03:15:39;10.80;;;4.95;;
69847;SDS011;57143;55.940;37.496;2022-10-23T03:18:07;14.43;;;4.45;;
69847;SDS011;57143;55.940;37.496;2022-10-23T03:20:35;13.98;;;4.55;;
69847;SDS011;57143;55.940;37.496;2022-10-23T03:23:02;12.43;;;4.20;;
69847;SDS011;57143;55.940;37.496;2022-10-23T03:25:29;15.90;;;4.90;;
69847;SDS011;57143;55.940;37.496;2022-10-23T03:27:55;15.43;;;5.93;;
69847;SDS011;57143;55.940;37.496;2022-10-23T03:30:22;11.48;;;4.50;;
69847;SDS011;57143;55.940;37.496;2022-10-23T03:32:49;9.70;;;4.68;;
69847;SDS011;57143;55.940;37.496;2022-10-23T03:35:18;16.00;;;5.23;;
69847;SDS011;57143;55.940;37.496;2022-10-23T03:37:45;14.45;;;5.20;;
69847;SDS011;57143;55.940;37.496;2022-10-23T03:40:12;10.70;;;3.95;;
69847;SDS011;57143;55.940;37.496;2022-10-23T03:42:39;13.63;;;5.32;;
69847;SDS011;57143;55.940;37.496;2022-10-23T03:45:06;13.73;;;4.78;;
69847;SDS011;57143;55.940;37.496;2022-10-23T03:47:34;15.17;;;5.33;;
69847;SDS011;57143;55.940;37.496;2022-10-23T03:50:05;16.35;;;5.20;;
69847;SDS011;57143;55.940;37.496;2022-10-23T03:52:34;12.35;;;4.53;;
69847;SDS011;57143;55.940;37.496;2022-10-23T03:55:01;13.55;;;5.45;;
69847;SDS011;57143;55.940;37.496;2022-10-23T03:57:29;13.85;;;5.55;;
69847;SDS011;57143;55.940;37.496;2022-10-23T03:59:56;12.83;;;5.23;;
69847;SDS011;57143;55.940;37.496;2022-10-23T04:02:23;11.90;;;4.45;;
69847;SDS011;57143;55.940;37.496;2022-10-23T04:04:50;14.63;;;5.88;;
69847;SDS011;57143;55.940;37.496;2022-10-23T04:07:18;13.88;;;5.35;;
69847;SDS011;57143;55.940;37.496;2022-10-23T04:09:46;17.10;;;5.38;;
69847;SDS011;57143;55.940;37.496;2022-10-23T04:12:13;15.40;;;5.17;;
69847;SDS011;57143;55.940;37.496;2022-10-23T04:14:40;11.90;;;4.90;;
69847;SDS011;57143;55.940;37.496;2022-10-23T04:17:07;14.13;;;5.28;;
69847;SDS011;57143;55.940;37.496;2022-10-23T04:19:34;14.10;;;5.10;;
69847;SDS011;57143;55.940;37.496;2022-10-23T04:22:01;13.85;;;4.78;;
69847;SDS011;57143;55.940;37.496;2022-10-23T04:24:28;16.07;;;5.63;;
69847;SDS011;57143;55.940;37.496;2022-10-23T04:26:57;14.73;;;5.68;;
69847;SDS011;57143;55.940;37.496;2022-10-23T04:29:24;19.08;;;5.80;;
69847;SDS011;57143;55.940;37.496;2022-10-23T04:31:53;12.60;;;5.57;;
69847;SDS011;57143;55.940;37.496;2022-10-23T04:34:20;16.15;;;5.53;;
69847;SDS011;57143;55.940;37.496;2022-10-23T04:36:47;14.03;;;6.13;;
69847;SDS011;57143;55.940;37.496;2022-10-23T04:39:14;15.82;;;6.47;;
69847;SDS011;57143;55.940;37.496;2022-10-23T04:41:41;12.70;;;5.22;;
69847;SDS011;57143;55.940;37.496;2022-10-23T04:44:10;17.30;;;6.18;;
69847;SDS011;57143;55.940;37.496;2022-10-23T04:46:37;15.70;;;6.60;;
69847;SDS011;57143;55.940;37.496;2022-10-23T04:49:04;18.07;;;6.53;;
69847;SDS011;57143;55.940;37.496;2022-10-23T04:51:31;19.52;;;5.97;;
69847;SDS011;57143;55.940;37.496;2022-10-23T04:53:58;12.73;;;5.05;;
69847;SDS011;57143;55.940;37.496;2022-10-23T04:56:25;14.15;;;5.85;;
69847;SDS011;57143;55.940;37.496;2022-10-23T04:58:52;17.25;;;6.32;;
69847;SDS011;57143;55.940;37.496;2022-10-23T05:01:21;14.53;;;5.63;;
69847;SDS011;57143;55.940;37.496;2022-10-23T05:03:48;15.73;;;5.75;;
69847;SDS011;57143;55.940;37.496;2022-10-23T05:06:15;14.50;;;5.75;;
69847;SDS011;57143;55.940;37.496;2022-10-23T05:08:41;15.65;;;6.20;;
69847;SDS011;57143;55.940;37.496;2022-10-23T05:11:08;15.48;;;6.88;;
69847;SDS011;57143;55.940;37.496;2022-10-23T05:13:35;17.67;;;6.73;;
69847;SDS011;57143;55.940;37.496;2022-10-23T05:16:02;16.75;;;5.47;;
69847;SDS011;57143;55.940;37.496;2022-10-23T05:18:31;18.08;;;6.20;;
69847;SDS011;57143;55.940;37.496;2022-10-23T05:21:02;14.25;;;5.82;;
69847;SDS011;57143;55.940;37.496;2022-10-23T05:23:33;19.17;;;6.70;;
69847;SDS011;57143;55.940;37.496;2022-10-23T05:26:02;18.70;;;6.23;;
69847;SDS011;57143;55.940;37.496;2022-10-23T05:28:29;16.60;;;6.50;;
69847;SDS011;57143;55.940;37.496;2022-10-23T05:30:57;17.55;;;5.93;;
69847;SDS011;57143;55.940;37.496;2022-10-23T05:33:26;17.00;;;5.90;;
69847;SDS011;57143;55.940;37.496;2022-10-23T05:35:55;15.18;;;6.45;;
69847;SDS011;57143;55.940;37.496;2022-10-23T05:38:23;18.37;;;7.27;;
69847;SDS011;57143;55.940;37.496;2022-10-23T05:40:52;18.83;;;6.55;;
69847;SDS011;57143;55.940;37.496;2022-10-23T05:43:19;17.42;;;5.93;;
69847;SDS011;57143;55.940;37.496;2022-10-23T05:45:46;15.73;;;6.00;;
69847;SDS011;57143;55.940;37.496;2022-10-23T05:48:14;15.07;;;6.45;;
69847;SDS011;57143;55.940;37.496;2022-10-23T05:50:41;15.93;;;5.87;;
69847;SDS011;57143;55.940;37.496;2022-10-23T05:53:10;14.75;;;6.10;;
69847;SDS011;57143;55.940;37.496;2022-10-23T05:55:37;12.68;;;5.50;;
69847;SDS011;57143;55.940;37.496;2022-10-23T05:58:04;16.52;;;6.63;;
69847;SDS011;57143;55.940;37.496;2022-10-23T06:00:31;18.70;;;6.90;;
69847;SDS011;57143;55.940;37.496;2022-10-23T06:02:58;19.23;;;6.57;;
69847;SDS011;57143;55.940;37.496;2022-10-23T06:05:25;18.05;;;6.57;;
69847;SDS011;57143;55.940;37.496;2022-10-23T06:07:55;16.63;;;6.55;;
69847;SDS011;57143;55.940;37.496;2022-10-23T06:10:24;17.90;;;6.78;;
69847;SDS011;57143;55.940;37.496;2022-10-23T06:12:51;12.40;;;4.78;;
69847;SDS011;57143;55.940;37.496;2022-10-23T06:15:18;15.47;;;6.07;;
69847;SDS011;57143;55.940;37.496;2022-10-23T06:17:45;16.23;;;5.80;;
69847;SDS011;57143;55.940;37.496;2022-10-23T06:20:12;14.10;;;5.53;;
69847;SDS011;57143;55.940;37.496;2022-10-23T06:22:39;15.18;;;6.10;;
69847;SDS011;57143;55.940;37.496;2022-10-23T06:25:07;24.02;;;6.60;;
69847;SDS011;57143;55.940;37.496;2022-10-23T06:27:36;20.63;;;7.83;;
69847;SDS011;57143;55.940;37.496;2022-10-23T06:30:03;14.00;;;6.10;;
69847;SDS011;57143;55.940;37.496;2022-10-23T06:32:31;28.02;;;7.47;;
69847;SDS011;57143;55.940;37.496;2022-10-23T06:34:58;17.05;;;7.22;;
69847;SDS011;57143;55.940;37.496;2022-10-23T06:37:25;18.17;;;6.40;;
69847;SDS011;57143;55.940;37.496;2022-10-23T06:39:52;13.90;;;5.20;;
69847;SDS011;57143;55.940;37.496;2022-10-23T06:42:19;22.52;;;6.60;;
69847;SDS011;57143;55.940;37.496;2022-10-23T06:44:48;19.23;;;6.75;;
69847;SDS011;57143;55.940;37.496;2022-10-23T06:47:15;16.35;;;6.95;;
69847;SDS011;57143;55.940;37.496;2022-10-23T06:49:42;17.77;;;6.75;;
69847;SDS011;57143;55.940;37.496;2022-10-23T06:52:09;17.27;;;7.43;;
69847;SDS011;57143;55.940;37.496;2022-10-23T06:54:36;21.85;;;6.75;;
69847;SDS011;57143;55.940;37.496;2022-10-23T06:57:03;17.00;;;7.50;;
69847;SDS011;57143;55.940;37.496;2022-10-23T06:59:30;17.00;;;6.95;;
69847;SDS011;57143;55.940;37.496;2022-10-23T07:01:58;17.20;;;7.18;;
69847;SDS011;57143;55.940;37.496;2022-10-23T07:04:25;18.43;;;6.83;;
69847;SDS011;57143;55.940;37.496;2022-10-23T07:06:53;16.45;;;7.50;;
69847;SDS011;57143;55.940;37.496;2022-10-23T07:09:20;16.95;;;6.50;;
69847;SDS011;57143;55.940;37.496;2022-10-23T07:11:47;15.00;;;6.15;;
69847;SDS011;57143;55.940;37.496;2022-10-23T07:14:14;17.52;;;6.80;;
69847;SDS011;57143;55.940;37.496;2022-10-23T07:16:43;19.80;;;7.30;;
69847;SDS011;57143;55.940;37.496;2022-10-23T07:19:12;21.30;;;7.32;;
69847;SDS011;57143;55.940;37.496;2022-10-23T07:21:39;18.45;;;7.03;;
69847;SDS011;57143;55.940;37.496;2022-10-23T07:24:06;22.08;;;6.97;;
69847;SDS011;57143;55.940;37.496;2022-10-23T07:26:33;15.13;;;6.78;;
69847;SDS011;57143;55.940;37.496;2022-10-23T07:29:00;19.57;;;7.90;;
69847;SDS011;57143;55.940;37.496;2022-10-23T07:31:27;19.38;;;7.45;;
69847;SDS011;57143;55.940;37.496;2022-10-23T07:33:54;21.27;;;7.90;;
69847;SDS011;57143;55.940;37.496;2022-10-23T07:36:23;21.25;;;7.18;;
69847;SDS011;57143;55.940;37.496;2022-10-23T07:38:50;19.00;;;7.63;;
69847;SDS011;57143;55.940;37.496;2022-10-23T07:41:17;18.67;;;7.87;;
69847;SDS011;57143;55.940;37.496;2022-10-23T07:43:45;19.83;;;7.35;;
69847;SDS011;57143;55.940;37.496;2022-10-23T07:46:12;19.40;;;8.45;;
69847;SDS011;57143;55.940;37.496;2022-10-23T07:48:39;18.92;;;7.30;;
69847;SDS011;57143;55.940;37.496;2022-10-23T07:51:07;22.58;;;8.15;;
69847;SDS011;57143;55.940;37.496;2022-10-23T07:53:37;26.57;;;8.40;;
69847;SDS011;57143;55.940;37.496;2022-10-23T07:56:09;23.27;;;7.97;;
69847;SDS011;57143;55.940;37.496;2022-10-23T07:58:39;20.85;;;8.70;;
69847;SDS011;57143;55.940;37.496;2022-10-23T08:01:11;22.95;;;8.43;;
69847;SDS011;57143;55.940;37.496;2022-10-23T08:03:42;22.58;;;8.55;;
69847;SDS011;57143;55.940;37.496;2022-10-23T08:06:09;23.57;;;8.17;;
69847;SDS011;57143;55.940;37.496;2022-10-23T08:08:38;24.55;;;9.27;;
69847;SDS011;57143;55.940;37.496;2022-10-23T08:11:05;21.80;;;7.70;;
69847;SDS011;57143;55.940;37.496;2022-10-23T08:13:32;21.48;;;8.15;;
69847;SDS011;57143;55.940;37.496;2022-10-23T08:15:59;18.15;;;7.82;;
69847;SDS011;57143;55.940;37.496;2022-10-23T08:18:26;18.70;;;7.97;;
69847;SDS011;57143;55.940;37.496;2022-10-23T08:20:58;22.08;;;8.43;;
69847;SDS011;57143;55.940;37.496;2022-10-23T08:23:26;21.67;;;7.72;;
69847;SDS011;57143;55.940;37.496;2022-10-23T08:25:59;21.65;;;8.77;;
69847;SDS011;57143;55.940;37.496;2022-10-23T08:28:31;27.05;;;8.85;;
69847;SDS011;57143;55.940;37.496;2022-10-23T08:31:04;25.67;;;7.80;;
69847;SDS011;57143;55.940;37.496;2022-10-23T08:33:33;20.38;;;7.30;;
69847;SDS011;57143;55.940;37.496;2022-10-23T08:36:00;22.85;;;8.05;;
69847;SDS011;57143;55.940;37.496;2022-10-23T08:38:29;30.23;;;9.70;;
69847;SDS011;57143;55.940;37.496;2022-10-23T08:40:56;26.95;;;8.88;;
69847;SDS011;57143;55.940;37.496;2022-10-23T08:43:29;18.23;;;7.77;;
69847;SDS011;57143;55.940;37.496;2022-10-23T08:46:03;23.20;;;8.38;;
69847;SDS011;57143;55.940;37.496;2022-10-23T08:48:36;24.77;;;9.65;;
69847;SDS011;57143;55.940;37.496;2022-10-23T08:51:10;27.25;;;10.27;;
69847;SDS011;57143;55.940;37.496;2022-10-23T08:53:43;20.20;;;7.40;;
69847;SDS011;57143;55.940;37.496;2022-10-23T08:56:19;23.73;;;10.20;;
69847;SDS011;57143;55.940;37.496;2022-10-23T08:58:53;26.80;;;11.02;;
69847;SDS011;57143;55.940;37.496;2022-10-23T09:01:30;30.38;;;11.05;;
69847;SDS011;57143;55.940;37.496;2022-10-23T09:04:03;24.30;;;8.73;;
69847;SDS011;57143;55.940;37.496;2022-10-23T09:06:33;29.17;;;8.60;;
69847;SDS011;57143;55.940;37.496;2022-10-23T09:09:06;27.37;;;8.97;;
69847;SDS011;57143;55.940;37.496;2022-10-23T09:11:49;25.63;;;8.95;;
69847;SDS011;57143;55.940;37.496;2022-10-23T09:14:27;22.80;;;8.27;;
69847;SDS011;57143;55.940;37.496;2022-10-23T09:17:09;26.35;;;9.25;;
69847;SDS011;57143;55.940;37.496;2022-10-23T09:19:44;22.40;;;9.15;;
69847;SDS011;57143;55.940;37.496;2022-10-23T09:22:12;23.40;;;8.40;;
69847;SDS011;57143;55.940;37.496;2022-10-23T09:24:41;27.70;;;10.13;;
69847;SDS011;57143;55.940;37.496;2022-10-23T09:27:09;24.55;;;9.88;;
69847;SDS011;57143;55.940;37.496;2022-10-23T09:29:47;28.55;;;10.55;;
69847;SDS011;57143;55.940;37.496;2022-10-23T09:32:15;26.85;;;10.27;;
69847;SDS011;57143;55.940;37.496;2022-10-23T09:34:49;28.87;;;10.17;;
69847;SDS011;57143;55.940;37.496;2022-10-23T09:37:20;28.33;;;10.48;;
69847;SDS011;57143;55.940;37.496;2022-10-23T09:39:58;28.58;;;10.02;;
69847;SDS011;57143;55.940;37.496;2022-10-23T09:42:27;27.23;;;10.73;;
69847;SDS011;57143;55.940;37.496;2022-10-23T09:44:55;31.13;;;11.23;;
69847;SDS011;57143;55.940;37.496;2022-10-23T09:47:23;27.77;;;9.93;;
69847;SDS011;57143;55.940;37.496;2022-10-23T09:49:55;25.42;;;10.27;;
69847;SDS011;57143;55.940;37.496;2022-10-23T09:52:23;29.38;;;11.30;;
69847;SDS011;57143;55.940;37.496;2022-10-23T09:54:55;29.88;;;10.98;;
69847;SDS011;57143;55.940;37.496;2022-10-23T09:57:26;29.90;;;11.18;;
69847;SDS011;57143;55.940;37.496;2022-10-23T09:59:59;28.13;;;10.80;;
69847;SDS011;57143;55.940;37.496;2022-10-23T10:02:29;29.92;;;10.50;;
69847;SDS011;57143;55.940;37.496;2022-10-23T10:04:58;29.55;;;10.05;;
69847;SDS011;57143;55.940;37.496;2022-10-23T10:07:25;29.33;;;11.10;;
69847;SDS011;57143;55.940;37.496;2022-10-23T10:09:54;25.48;;;10.85;;
69847;SDS011;57143;55.940;37.496;2022-10-23T10:12:30;27.10;;;9.33;;
69847;SDS011;57143;55.940;37.496;2022-10-23T10:15:10;27.42;;;10.23;;
69847;SDS011;57143;55.940;37.496;2022-10-23T10:17:48;27.02;;;10.05;;
69847;SDS011;57143;55.940;37.496;2022-10-23T10:20:33;28.17;;;11.13;;
69847;SDS011;57143;55.940;37.496;2022-10-23T10:23:11;30.65;;;11.27;;
69847;SDS011;57143;55.940;37.496;2022-10-23T10:25:50;25.00;;;10.70;;
69847;SDS011;57143;55.940;37.496;2022-10-23T10:28:27;24.80;;;9.45;;
69847;SDS011;57143;55.940;37.496;2022-10-23T10:31:08;29.58;;;11.20;;
69847;SDS011;57143;55.940;37.496;2022-10-23T10:33:45;31.70;;;11.00;;
69847;SDS011;57143;55.940;37.496;2022-10-23T10:36:24;27.70;;;10.07;;
69847;SDS011;57143;55.940;37.496;2022-10-23T10:39:09;28.50;;;10.90;;
69847;SDS011;57143;55.940;37.496;2022-10-23T10:41:48;29.83;;;12.25;;
69847;SDS011;57143;55.940;37.496;2022-10-23T10:44:41;30.63;;;11.18;;
69847;SDS011;57143;55.940;37.496;2022-10-23T10:47:31;19.92;;;7.80;;
69847;SDS011;57143;55.940;37.496;2022-10-23T10:50:09;29.65;;;9.63;;
69847;SDS011;57143;55.940;37.496;2022-10-23T10:52:46;27.87;;;11.60;;
69847;SDS011;57143;55.940;37.496;2022-10-23T10:55:22;27.60;;;10.80;;
69847;SDS011;57143;55.940;37.496;2022-10-23T10:57:55;26.23;;;11.07;;
69847;SDS011;57143;55.940;37.496;2022-10-23T11:00:26;30.15;;;11.00;;
69847;SDS011;57143;55.940;37.496;2022-10-23T11:02:58;26.90;;;10.40;;
69847;SDS011;57143;55.940;37.496;2022-10-23T11:05:30;36.83;;;11.23;;
69847;SDS011;57143;55.940;37.496;2022-10-23T11:07:59;34.72;;;12.75;;
69847;SDS011;57143;55.940;37.496;2022-10-23T11:10:30;34.45;;;12.10;;
69847;SDS011;57143;55.940;37.496;2022-10-23T11:12:58;35.55;;;12.05;;
69847;SDS011;57143;55.940;37.496;2022-10-23T11:15:26;36.28;;;12.38;;
69847;SDS011;57143;55.940;37.496;2022-10-23T11:18:02;31.00;;;11.93;;
69847;SDS011;57143;55.940;37.496;2022-10-23T11:20:51;30.33;;;12.63;;
69847;SDS011;57143;55.940;37.496;2022-10-23T11:23:37;32.88;;;11.75;;
69847;SDS011;57143;55.940;37.496;2022-10-23T11:26:23;34.13;;;12.82;;
69847;SDS011;57143;55.940;37.496;2022-10-23T11:32:04;34.40;;;11.90;;
69847;SDS011;57143;55.940;37.496;2022-10-23T11:34:53;31.42;;;11.98;;
69847;SDS011;57143;55.940;37.496;2022-10-23T11:37:30;29.17;;;11.80;;
69847;SDS011;57143;55.940;37.496;2022-10-23T11:40:01;33.38;;;12.07;;
69847;SDS011;57143;55.940;37.496;2022-10-23T11:42:47;34.00;;;11.40;;
69847;SDS011;57143;55.940;37.496;2022-10-23T11:45:25;30.17;;;10.80;;
69847;SDS011;57143;55.940;37.496;2022-10-23T11:47:57;32.08;;;11.30;;
69847;SDS011;57143;55.940;37.496;2022-10-23T11:50:28;30.08;;;11.60;;
69847;SDS011;57143;55.940;37.496;2022-10-23T11:53:00;31.25;;;12.00;;
69847;SDS011;57143;55.940;37.496;2022-10-23T11:55:34;28.35;;;11.38;;
69847;SDS011;57143;55.940;37.496;2022-10-23T11:58:12;31.57;;;11.03;;
69847;SDS011;57143;55.940;37.496;2022-10-23T12:00:57;26.13;;;10.77;;
69847;SDS011;57143;55.940;37.496;2022-10-23T12:03:32;33.17;;;11.40;;
69847;SDS011;57143;55.940;37.496;2022-10-23T12:06:13;27.90;;;10.15;;
69847;SDS011;57143;55.940;37.496;2022-10-23T12:08:49;28.00;;;10.55;;
69847;SDS011;57143;55.940;37.496;2022-10-23T12:11:25;33.17;;;11.30;;
69847;SDS011;57143;55.940;37.496;2022-10-23T12:16:55;30.15;;;10.73;;
69847;SDS011;57143;55.940;37.496;2022-10-23T12:19:24;29.88;;;8.43;;
69847;SDS011;57143;55.940;37.496;2022-10-23T12:21:55;28.70;;;10.18;;
69847;SDS011;57143;55.940;37.496;2022-10-23T12:24:38;30.00;;;11.13;;
69847;SDS011;57143;55.940;37.496;2022-10-23T12:27:20;27.35;;;10.27;;
69847;SDS011;57143;55.940;37.496;2022-10-23T12:29:59;31.75;;;11.23;;
69847;SDS011;57143;55.940;37.496;2022-10-23T12:32:44;32.85;;;9.98;;
69847;SDS011;57143;55.940;37.496;2022-10-23T12:35:53;25.77;;;9.95;;
69847;SDS011;57143;55.940;37.496;2022-10-23T12:38:32;33.00;;;11.63;;
69847;SDS011;57143;55.940;37.496;2022-10-23T12:43:52;24.10;;;10.23;;
69847;SDS011;57143;55.940;37.496;2022-10-23T12:46:52;30.15;;;11.32;;
69847;SDS011;57143;55.940;37.496;2022-10-23T12:49:48;27.92;;;10.13;;
69847;SDS011;57143;55.940;37.496;2022-10-23T12:52:18;24.93;;;10.00;;
69847;SDS011;57143;55.940;37.496;2022-10-23T12:54:50;27.60;;;10.68;;
69847;SDS011;57143;55.940;37.496;2022-10-23T12:57:21;25.25;;;9.60;;
69847;SDS011;57143;55.940;37.496;2022-10-23T12:59:52;26.25;;;9.90;;
69847;SDS011;57143;55.940;37.496;2022-10-23T13:02:30;31.42;;;10.07;;
69847;SDS011;57143;55.940;37.496;2022-10-23T13:05:05;26.93;;;10.43;;
69847;SDS011;57143;55.940;37.496;2022-10-23T13:07:38;28.67;;;9.57;;
69847;SDS011;57143;55.940;37.496;2022-10-23T13:10:19;29.05;;;10.00;;
69847;SDS011;57143;55.940;37.496;2022-10-23T13:12:57;26.83;;;9.90;;
69847;SDS011;57143;55.940;37.496;2022-10-23T13:15:35;28.80;;;9.68;;
69847;SDS011;57143;55.940;37.496;2022-10-23T13:18:04;30.20;;;10.53;;
69847;SDS011;57143;55.940;37.496;2022-10-23T13:20:32;25.70;;;7.82;;
69847;SDS011;57143;55.940;37.496;2022-10-23T13:23:07;28.40;;;9.50;;
69847;SDS011;57143;55.940;37.496;2022-10-23T13:25:38;26.27;;;10.00;;
69847;SDS011;57143;55.940;37.496;2022-10-23T13:28:20;25.10;;;9.63;;
69847;SDS011;57143;55.940;37.496;2022-10-23T13:31:02;29.50;;;9.37;;
69847;SDS011;57143;55.940;37.496;2022-10-23T13:33:48;28.85;;;9.07;;
69847;SDS011;57143;55.940;37.496;2022-10-23T13:36:21;29.88;;;10.18;;
69847;SDS011;57143;55.940;37.496;2022-10-23T13:38:59;31.73;;;9.93;;
69847;SDS011;57143;55.940;37.496;2022-10-23T13:41:33;24.95;;;9.45;;
69847;SDS011;57143;55.940;37.496;2022-10-23T13:44:04;23.90;;;8.83;;
69847;SDS011;57143;55.940;37.496;2022-10-23T13:46:32;27.33;;;9.75;;
69847;SDS011;57143;55.940;37.496;2022-10-23T13:48:59;25.83;;;9.95;;
69847;SDS011;57143;55.940;37.496;2022-10-23T13:51:26;24.25;;;9.73;;
69847;SDS011;57143;55.940;37.496;2022-10-23T13:53:55;29.90;;;10.57;;
69847;SDS011;57143;55.940;37.496;2022-10-23T13:56:23;27.37;;;10.53;;
69847;SDS011;57143;55.940;37.496;2022-10-23T13:58:53;28.33;;;10.00;;
69847;SDS011;57143;55.940;37.496;2022-10-23T14:01:21;25.17;;;9.70;;
69847;SDS011;57143;55.940;37.496;2022-10-23T14:03:50;23.75;;;9.35;;
69847;SDS011;57143;55.940;37.496;2022-10-23T14:06:18;22.60;;;9.55;;
69847;SDS011;57143;55.940;37.496;2022-10-23T14:08:46;26.57;;;10.50;;
69847;SDS011;57143;55.940;37.496;2022-10-23T14:11:14;27.42;;;10.45;;
69847;SDS011;57143;55.940;37.496;2022-10-23T14:13:42;29.20;;;10.80;;
69847;SDS011;57143;55.940;37.496;2022-10-23T14:16:14;26.33;;;10.68;;
69847;SDS011;57143;55.940;37.496;2022-10-23T14:18:42;31.27;;;10.80;;
69847;SDS011;57143;55.940;37.496;2022-10-23T14:24:02;26.15;;;9.45;;
69847;SDS011;57143;55.940;37.496;2022-10-23T14:26:33;26.80;;;9.70;;
69847;SDS011;57143;55.940;37.496;2022-10-23T14:32:31;22.70;;;8.90;;
69847;SDS011;57143;55.940;37.496;2022-10-23T14:35:06;27.10;;;9.93;;
69847;SDS011;57143;55.940;37.496;2022-10-23T14:37:34;21.40;;;9.02;;
69847;SDS011;57143;55.940;37.496;2022-10-23T14:40:01;26.20;;;10.43;;
69847;SDS011;57143;55.940;37.496;2022-10-23T14:42:29;25.50;;;9.77;;
69847;SDS011;57143;55.940;37.496;2022-10-23T14:45:01;25.67;;;9.52;;
69847;SDS011;57143;55.940;37.496;2022-10-23T14:47:32;25.50;;;9.73;;
69847;SDS011;57143;55.940;37.496;2022-10-23T14:50:12;25.38;;;10.60;;
69847;SDS011;57143;55.940;37.496;2022-10-23T14:53:04;28.63;;;10.90;;
69847;SDS011;57143;55.940;37.496;2022-10-23T14:56:05;24.15;;;10.40;;
69847;SDS011;57143;55.940;37.496;2022-10-23T14:58:59;25.92;;;9.60;;
69847;SDS011;57143;55.940;37.496;2022-10-23T15:01:44;25.00;;;9.33;;